createdAt,value
2022-07-25T00:03:04.733Z,24.30
2022-07-25T00:07:05.963Z,24.20
2022-07-25T00:11:07.163Z,24.30
2022-07-25T00:15:09.302Z,24.30
2022-07-25T00:19:10.518Z,24.40
2022-07-25T00:23:11.726Z,24.40
2022-07-25T00:27:12.868Z,24.30
2022-07-25T00:31:14.153Z,24.10
2022-07-25T00:35:15.546Z,24.00
2022-07-25T00:39:16.972Z,24.10
2022-07-25T00:43:18.198Z,24.00
2022-07-25T00:47:19.498Z,24.00
2022-07-25T00:51:20.924Z,23.90
2022-07-25T00:55:23.547Z,23.80
2022-07-25T00:59:24.780Z,23.90
2022-07-25T01:03:26.649Z,24.00
2022-07-25T01:07:28.925Z,23.90
2022-07-25T01:11:30.627Z,23.90
2022-07-25T01:15:32.276Z,23.90
2022-07-25T01:19:33.544Z,23.90
2022-07-25T01:23:34.669Z,23.90
2022-07-25T01:27:35.878Z,23.90
2022-07-25T01:31:37.185Z,23.80
2022-07-25T01:35:43.266Z,23.80
2022-07-25T01:39:41.822Z,23.70
2022-07-25T01:43:43.042Z,23.70
2022-07-25T01:47:44.241Z,23.60
2022-07-25T01:51:45.472Z,23.60
2022-07-25T01:55:48.019Z,23.60
2022-07-25T01:59:49.271Z,23.60
2022-07-25T02:03:50.473Z,23.50
2022-07-25T02:07:51.719Z,23.40
2022-07-25T02:11:53.140Z,23.40
2022-07-25T02:15:54.461Z,23.30
2022-07-25T02:19:55.689Z,23.20
2022-07-25T02:23:57.605Z,23.10
2022-07-25T02:27:59.437Z,23.30
2022-07-25T02:32:00.744Z,23.30
2022-07-25T02:36:02.049Z,23.20
2022-07-25T02:40:05.114Z,23.00
2022-07-25T02:44:06.702Z,23.00
2022-07-25T02:48:08.297Z,23.10
2022-07-25T02:52:09.426Z,22.90
2022-07-25T02:56:10.862Z,22.70
2022-07-25T03:00:14.668Z,22.60
2022-07-25T03:04:16.242Z,22.70
2022-07-25T03:08:18.408Z,22.80
2022-07-25T03:12:19.657Z,22.90
2022-07-25T03:16:20.893Z,22.70
2022-07-25T03:20:22.076Z,22.70
2022-07-25T03:24:23.196Z,22.60
2022-07-25T03:28:24.595Z,22.70
2022-07-25T03:32:25.936Z,22.70
2022-07-25T03:36:27.160Z,22.60
2022-07-25T03:40:28.765Z,22.70
2022-07-25T03:44:29.901Z,22.70
2022-07-25T03:48:31.139Z,22.70
2022-07-25T03:52:32.341Z,22.60
2022-07-25T03:56:41.541Z,22.60
2022-07-25T04:00:43.295Z,22.70
2022-07-25T04:04:46.043Z,22.70
2022-07-25T04:08:47.400Z,22.70
2022-07-25T04:12:48.606Z,22.60
2022-07-25T04:16:49.915Z,22.50
2022-07-25T04:20:51.147Z,22.30
2022-07-25T04:24:52.368Z,22.40
2022-07-25T04:28:53.710Z,22.40
2022-07-25T04:32:55.037Z,22.40
2022-07-25T04:36:56.233Z,22.70
2022-07-25T04:40:57.585Z,23.00
2022-07-25T04:44:58.785Z,23.30
2022-07-25T04:49:00.147Z,23.60
2022-07-25T04:53:01.337Z,23.90
2022-07-25T04:57:04.463Z,24.30
2022-07-25T05:01:06.593Z,24.70
2022-07-25T05:05:08.669Z,25.10
2022-07-25T05:09:11.692Z,25.80
2022-07-25T05:13:12.806Z,26.30
2022-07-25T05:17:14.416Z,26.50
2022-07-25T05:21:15.642Z,26.50
2022-07-25T05:25:17.138Z,26.40
2022-07-25T05:29:18.837Z,26.50
2022-07-25T05:33:20.056Z,26.80
2022-07-25T05:37:21.278Z,26.80
2022-07-25T05:41:22.508Z,26.60
2022-07-25T05:45:23.912Z,25.80
2022-07-25T05:49:25.053Z,26.10
2022-07-25T05:53:26.266Z,26.00
2022-07-25T05:57:27.490Z,25.70
2022-07-25T06:01:28.790Z,25.90
2022-07-25T06:05:30.153Z,25.90
2022-07-25T06:09:31.387Z,25.80
2022-07-25T06:13:34.128Z,25.70
2022-07-25T06:17:35.842Z,26.00
2022-07-25T06:21:37.055Z,26.20
2022-07-25T06:25:38.280Z,26.20
2022-07-25T06:29:39.501Z,26.10
2022-07-25T06:33:40.782Z,26.30
2022-07-25T06:37:42.020Z,26.80
2022-07-25T06:41:43.317Z,27.00
2022-07-25T06:45:46.481Z,27.40
2022-07-25T06:49:47.759Z,27.40
2022-07-25T06:53:49.221Z,27.50
2022-07-25T06:57:50.478Z,27.10
2022-07-25T07:01:52.039Z,27.30
2022-07-25T07:05:53.300Z,27.70
2022-07-25T07:09:54.453Z,27.80
2022-07-25T07:13:56.671Z,28.00
2022-07-25T07:17:57.984Z,27.70
2022-07-25T07:21:59.202Z,27.70
2022-07-25T07:26:00.326Z,27.50
2022-07-25T07:30:01.544Z,27.70
2022-07-25T07:34:02.810Z,27.60
2022-07-25T07:38:04.003Z,27.50
2022-07-25T07:42:05.280Z,27.50
2022-07-25T07:46:07.088Z,27.90
2022-07-25T07:50:10.653Z,28.40
2022-07-25T07:54:30.182Z,28.60
2022-07-25T07:58:31.396Z,28.90
2022-07-25T08:02:32.675Z,28.90
2022-07-25T08:06:33.836Z,28.90
2022-07-25T08:10:37.382Z,29.40
2022-07-25T08:14:38.600Z,29.50
2022-07-25T08:18:39.802Z,30.10
2022-07-25T08:22:43.741Z,30.00
2022-07-25T08:26:44.970Z,30.50
2022-07-25T08:30:47.376Z,31.10
2022-07-25T08:34:48.656Z,31.80
2022-07-25T08:38:49.783Z,32.30
2022-07-25T08:42:51.792Z,32.70
2022-07-25T08:46:54.293Z,32.60
2022-07-25T08:50:58.924Z,32.80
2022-07-25T08:55:02.552Z,33.20
2022-07-25T08:59:03.795Z,33.80
2022-07-25T09:03:08.328Z,33.50
2022-07-25T09:07:09.511Z,33.40
2022-07-25T09:11:10.732Z,34.30
2022-07-25T09:15:15.791Z,34.10
2022-07-25T09:19:20.717Z,34.50
2022-07-25T09:23:31.854Z,35.20
2022-07-25T09:27:33.888Z,35.40
2022-07-25T09:31:35.224Z,35.50
2022-07-25T09:35:38.353Z,35.60
2022-07-25T09:39:49.019Z,35.80
2022-07-25T09:43:50.526Z,36.40
2022-07-25T09:47:54.760Z,36.50
2022-07-25T09:51:55.982Z,37.10
2022-07-25T09:55:57.492Z,36.30
2022-07-25T10:00:00.255Z,37.10
2022-07-25T10:04:17.372Z,37.30
2022-07-25T10:08:20.818Z,37.50
2022-07-25T10:12:23.343Z,37.80
2022-07-25T10:16:26.273Z,37.70
2022-07-25T10:20:28.623Z,37.70
2022-07-25T10:24:38.380Z,38.20
2022-07-25T10:28:48.843Z,36.70
2022-07-25T10:33:03.181Z,37.10
2022-07-25T10:37:17.730Z,37.90
2022-07-25T10:41:21.242Z,37.40
2022-07-25T10:45:26.150Z,38.20
2022-07-25T10:49:32.472Z,37.90
2022-07-25T10:53:39.871Z,38.40
2022-07-25T10:57:55.047Z,38.50
2022-07-25T11:01:48.079Z,38.60
2022-07-25T11:05:51.424Z,38.50
2022-07-25T11:10:00.981Z,38.80
2022-07-25T11:14:03.191Z,39.20
2022-07-25T11:18:04.589Z,38.90
2022-07-25T11:22:06.516Z,38.40
2022-07-25T11:26:09.902Z,37.30
2022-07-25T11:30:14.257Z,36.80
2022-07-25T11:34:15.680Z,37.90
2022-07-25T11:38:16.902Z,38.10
2022-07-25T11:42:19.537Z,38.00
2022-07-25T11:46:20.855Z,38.50
2022-07-25T11:50:25.883Z,38.40
2022-07-25T11:54:27.112Z,37.90
2022-07-25T11:58:28.328Z,37.50
2022-07-25T12:02:32.820Z,37.00
2022-07-25T12:06:34.176Z,36.20
2022-07-25T12:10:36.407Z,35.50
2022-07-25T12:14:43.194Z,35.60
2022-07-25T12:18:44.394Z,35.40
2022-07-25T12:22:47.337Z,35.10
2022-07-25T12:26:48.563Z,35.60
2022-07-25T12:30:55.960Z,36.30
2022-07-25T12:34:53.465Z,37.10
2022-07-25T12:38:54.687Z,37.30
2022-07-25T12:42:57.380Z,36.90
2022-07-25T12:46:58.564Z,36.40
2022-07-25T12:50:59.796Z,36.60
2022-07-25T12:55:01.135Z,37.00
2022-07-25T12:59:02.345Z,36.20
2022-07-25T13:03:03.867Z,35.80
2022-07-25T13:07:05.326Z,35.80
2022-07-25T13:11:06.544Z,35.40
2022-07-25T13:15:08.738Z,35.00
2022-07-25T13:19:10.699Z,35.30
2022-07-25T13:23:13.640Z,35.40
2022-07-25T13:27:18.126Z,35.80
2022-07-25T13:31:21.036Z,36.10
2022-07-25T13:35:29.298Z,36.50
2022-07-25T13:39:26.506Z,36.10
2022-07-25T13:43:27.730Z,35.80
2022-07-25T13:47:30.537Z,35.40
2022-07-25T13:51:31.878Z,35.30
2022-07-25T13:55:33.305Z,34.50
2022-07-25T13:59:35.361Z,34.60
2022-07-25T14:03:36.707Z,34.50
2022-07-25T14:07:38.428Z,34.80
2022-07-25T14:11:39.588Z,35.60
2022-07-25T14:15:40.796Z,35.70
2022-07-25T14:19:42.028Z,35.60
2022-07-25T14:23:43.230Z,35.20
2022-07-25T14:27:44.585Z,34.90
2022-07-25T14:31:46.414Z,34.50
2022-07-25T14:35:47.629Z,33.00
2022-07-25T14:39:49.669Z,30.60
2022-07-25T14:43:51.296Z,30.60
2022-07-25T14:47:53.218Z,31.20
2022-07-25T14:51:54.638Z,31.90
2022-07-25T14:55:55.880Z,32.60
2022-07-25T14:59:57.008Z,33.10
2022-07-25T15:03:58.231Z,33.50
2022-07-25T15:07:59.851Z,33.80
2022-07-25T15:12:00.978Z,33.80
2022-07-25T15:16:04.254Z,33.20
2022-07-25T15:20:07.055Z,33.00
2022-07-25T15:24:08.302Z,32.80
2022-07-25T15:28:09.412Z,32.80
2022-07-25T15:32:10.648Z,32.70
2022-07-25T15:36:11.881Z,32.50
2022-07-25T15:40:13.190Z,33.00
2022-07-25T15:44:14.308Z,33.00
2022-07-25T15:48:16.758Z,33.20
2022-07-25T15:52:18.107Z,33.20
2022-07-25T15:56:19.379Z,33.60
2022-07-25T16:00:20.999Z,33.60
2022-07-25T16:04:23.392Z,33.80
2022-07-25T16:08:24.655Z,33.80
2022-07-25T16:12:28.548Z,33.40
2022-07-25T16:16:29.688Z,33.40
2022-07-25T16:20:31.706Z,33.30
2022-07-25T16:24:33.090Z,33.20
2022-07-25T16:28:35.611Z,32.70
2022-07-25T16:32:37.031Z,32.30
2022-07-25T16:36:38.158Z,32.30
2022-07-25T16:40:39.622Z,32.30
2022-07-25T16:44:41.326Z,32.10
2022-07-25T16:48:42.571Z,32.00
2022-07-25T16:52:43.799Z,32.00
2022-07-25T16:56:45.015Z,31.70
2022-07-25T17:00:46.147Z,31.60
2022-07-25T17:04:47.664Z,31.50
2022-07-25T17:08:49.010Z,31.70
2022-07-25T17:12:50.672Z,31.50
2022-07-25T17:16:51.931Z,31.60
2022-07-25T17:20:53.991Z,31.60
2022-07-25T17:24:55.482Z,31.50
2022-07-25T17:28:57.721Z,31.60
2022-07-25T17:32:59.132Z,31.40
2022-07-25T17:37:02.163Z,31.60
2022-07-25T17:41:03.807Z,31.50
2022-07-25T17:45:06.329Z,31.20
2022-07-25T17:49:08.021Z,31.10
2022-07-25T17:53:09.603Z,31.00
2022-07-25T17:57:10.730Z,30.60
2022-07-25T18:01:11.928Z,30.40
2022-07-25T18:05:13.827Z,30.20
2022-07-25T18:09:15.241Z,30.10
2022-07-25T18:13:17.794Z,29.60
2022-07-25T18:17:20.712Z,29.30
2022-07-25T18:21:23.114Z,29.20
2022-07-25T18:25:24.245Z,29.10
2022-07-25T18:29:25.579Z,28.90
2022-07-25T18:33:26.709Z,28.80
2022-07-25T18:37:28.024Z,28.80
2022-07-25T18:41:30.347Z,28.80
2022-07-25T18:45:31.789Z,28.80
2022-07-25T18:49:32.916Z,28.60
2022-07-25T18:53:34.598Z,28.50
2022-07-25T18:57:36.310Z,28.10
2022-07-25T19:01:37.787Z,27.80
2022-07-25T19:05:39.047Z,27.70
2022-07-25T19:09:40.594Z,27.60
2022-07-25T19:13:50.693Z,27.40
2022-07-25T19:17:44.979Z,27.50
2022-07-25T19:21:46.282Z,27.50
2022-07-25T19:25:47.617Z,27.30
2022-07-25T19:29:48.834Z,27.20
2022-07-25T19:33:50.061Z,27.20
2022-07-25T19:37:51.282Z,27.20
2022-07-25T19:41:52.917Z,27.10
2022-07-25T19:45:54.102Z,27.10
2022-07-25T19:49:55.485Z,27.10
2022-07-25T19:53:57.037Z,27.20
2022-07-25T19:57:59.201Z,27.00
2022-07-25T20:02:00.596Z,27.00
2022-07-25T20:06:07.591Z,27.00
2022-07-25T20:10:06.380Z,27.10
2022-07-25T20:14:08.341Z,27.00
2022-07-25T20:18:10.022Z,26.90
2022-07-25T20:22:11.569Z,26.90
2022-07-25T20:26:13.795Z,26.60
2022-07-25T20:30:15.051Z,26.60
2022-07-25T20:34:16.272Z,26.70
2022-07-25T20:38:19.608Z,26.90
2022-07-25T20:42:22.675Z,26.90
2022-07-25T20:46:23.995Z,26.90
2022-07-25T20:50:25.267Z,27.00
2022-07-25T20:54:26.373Z,26.90
2022-07-25T20:58:27.582Z,26.80
2022-07-25T21:02:28.815Z,27.00
2022-07-25T21:06:30.047Z,26.90
2022-07-25T21:10:33.170Z,26.80
2022-07-25T21:14:34.390Z,26.80
2022-07-25T21:18:35.866Z,26.90
2022-07-25T21:22:37.165Z,26.80
2022-07-25T21:26:38.756Z,26.80
2022-07-25T21:30:41.944Z,26.70
2022-07-25T21:34:45.012Z,26.60
2022-07-25T21:38:46.442Z,26.60
2022-07-25T21:42:47.548Z,26.80
2022-07-25T21:46:48.879Z,26.80
2022-07-25T21:50:50.435Z,26.90
2022-07-25T21:54:52.113Z,26.80
2022-07-25T21:58:53.261Z,26.80
2022-07-25T22:02:55.581Z,26.30
2022-07-25T22:06:56.805Z,26.00
2022-07-25T22:10:58.034Z,26.00
2022-07-25T22:14:59.649Z,25.80
2022-07-25T22:19:00.975Z,25.90
2022-07-25T22:23:02.800Z,25.90
2022-07-25T22:27:04.196Z,26.00
2022-07-25T22:31:05.405Z,25.90
2022-07-25T22:35:07.551Z,26.10
2022-07-25T22:39:10.262Z,26.20
2022-07-25T22:43:11.840Z,26.10
2022-07-25T22:47:13.072Z,26.10
2022-07-25T22:51:14.297Z,25.90
2022-07-25T22:55:16.233Z,26.00
2022-07-25T22:59:17.360Z,26.10
2022-07-25T23:03:18.704Z,26.10
2022-07-25T23:07:20.012Z,26.20
2022-07-25T23:11:21.210Z,26.00
2022-07-25T23:15:22.344Z,25.80
2022-07-25T23:19:25.363Z,25.90
2022-07-25T23:23:26.503Z,25.60
2022-07-25T23:27:29.015Z,25.70
2022-07-25T23:31:32.084Z,25.50
2022-07-25T23:35:33.587Z,25.60
2022-07-25T23:39:34.921Z,25.50
2022-07-25T23:43:56.107Z,25.40
2022-07-25T23:47:40.829Z,25.40
2022-07-25T23:51:42.290Z,25.40
2022-07-25T23:55:43.410Z,25.50
2022-07-25T23:59:44.934Z,25.40
